createdAt,value
2023-04-22T00:02:09.419Z,19.70
2023-04-22T00:04:38.107Z,21.10
2023-04-22T00:07:06.744Z,20.80
2023-04-22T00:09:35.993Z,17.60
2023-04-22T00:12:05.118Z,21.50
2023-04-22T00:14:34.797Z,16.50
2023-04-22T00:17:03.844Z,15.70
2023-04-22T00:19:32.281Z,15.70
2023-04-22T00:22:00.621Z,19.50
2023-04-22T00:24:29.136Z,15.70
2023-04-22T00:26:57.450Z,24.50
2023-04-22T00:29:26.395Z,20.40
2023-04-22T00:31:55.012Z,17.60
2023-04-22T00:34:23.630Z,21.30
2023-04-22T00:36:51.956Z,21.70
2023-04-22T00:39:20.333Z,16.20
2023-04-22T00:41:48.700Z,18.60
2023-04-22T00:44:17.868Z,15.40
2023-04-22T00:46:46.248Z,17.00
2023-04-22T00:49:15.681Z,16.80
2023-04-22T00:51:44.128Z,22.70
2023-04-22T00:54:12.613Z,14.20
2023-04-22T00:56:40.915Z,13.90
2023-04-22T00:59:10.191Z,13.90
2023-04-22T01:01:38.705Z,6.70
2023-04-22T01:04:07.118Z,14.20
2023-04-22T01:06:35.892Z,13.10
2023-04-22T01:09:04.726Z,15.60
2023-04-22T01:11:33.008Z,15.20
2023-04-22T01:14:01.392Z,14.40
2023-04-22T01:16:30.600Z,15.10
2023-04-22T01:18:58.917Z,19.30
2023-04-22T01:21:29.103Z,15.30
2023-04-22T01:23:57.746Z,12.00
2023-04-22T01:26:26.221Z,13.70
2023-04-22T01:28:54.616Z,12.90
2023-04-22T01:31:23.190Z,14.40
2023-04-22T01:33:51.865Z,15.00
2023-04-22T01:36:20.120Z,17.30
2023-04-22T01:38:48.588Z,17.70
2023-04-22T01:41:17.290Z,14.50
2023-04-22T01:43:45.736Z,14.10
2023-04-22T01:46:16.150Z,18.00
2023-04-22T01:48:49.793Z,14.70
2023-04-22T01:51:19.799Z,11.70
2023-04-22T01:53:48.345Z,17.10
2023-04-22T01:56:17.286Z,21.30
2023-04-22T01:58:45.543Z,12.20
2023-04-22T02:01:14.157Z,16.00
2023-04-22T02:03:42.674Z,18.30
2023-04-22T02:06:11.477Z,12.50
2023-04-22T02:08:39.748Z,12.60
2023-04-22T02:11:08.143Z,15.10
2023-04-22T02:13:37.550Z,10.60
2023-04-22T02:16:07.202Z,14.00
2023-04-22T02:18:35.674Z,13.30
2023-04-22T02:21:04.424Z,11.00
2023-04-22T02:23:32.811Z,14.40
2023-04-22T02:26:01.023Z,11.40
2023-04-22T02:28:29.372Z,10.30
2023-04-22T02:30:57.950Z,14.60
2023-04-22T02:33:26.370Z,8.70
2023-04-22T02:35:54.785Z,15.80
2023-04-22T02:38:23.429Z,15.50
2023-04-22T02:40:51.606Z,14.40
2023-04-22T02:43:20.238Z,8.70
2023-04-22T02:45:48.507Z,11.00
2023-04-22T02:48:16.965Z,15.60
2023-04-22T02:50:45.178Z,14.40
2023-04-22T02:53:13.515Z,14.30
2023-04-22T02:55:41.885Z,11.60
2023-04-22T02:58:10.453Z,9.90
2023-04-22T03:00:38.806Z,12.50
2023-04-22T03:03:07.289Z,10.90
2023-04-22T03:05:35.969Z,17.20
2023-04-22T03:08:04.427Z,11.20
2023-04-22T03:10:32.755Z,6.70
2023-04-22T03:13:00.983Z,15.30
2023-04-22T03:15:29.332Z,16.40
2023-04-22T03:17:57.685Z,10.30
2023-04-22T03:20:26.330Z,16.90
2023-04-22T03:22:55.124Z,8.20
2023-04-22T03:25:23.371Z,10.40
2023-04-22T03:27:51.667Z,11.60
2023-04-22T03:30:20.100Z,13.90
2023-04-22T03:32:48.476Z,16.50
2023-04-22T03:35:17.144Z,6.70
2023-04-22T03:37:45.416Z,10.40
2023-04-22T03:40:14.298Z,14.30
2023-04-22T03:42:42.601Z,14.20
2023-04-22T03:45:11.816Z,16.20
2023-04-22T03:47:42.782Z,13.10
2023-04-22T03:50:11.592Z,10.50
2023-04-22T03:52:40.196Z,20.20
2023-04-22T03:55:10.064Z,14.40
2023-04-22T03:57:38.324Z,12.00
2023-04-22T04:00:09.018Z,13.80
2023-04-22T04:02:37.379Z,9.40
2023-04-22T04:05:09.153Z,11.30
2023-04-22T04:07:37.671Z,11.80
2023-04-22T04:10:08.701Z,14.50
2023-04-22T04:12:37.266Z,9.50
2023-04-22T04:15:08.035Z,12.40
2023-04-22T04:17:36.506Z,11.20
2023-04-22T04:20:06.912Z,9.70
2023-04-22T04:22:35.506Z,12.60
2023-04-22T04:25:04.804Z,11.00
2023-04-22T04:27:33.180Z,11.80
2023-04-22T04:30:03.665Z,14.20
2023-04-22T04:32:33.686Z,12.70
2023-04-22T04:35:02.653Z,12.10
2023-04-22T04:37:30.953Z,8.70
2023-04-22T04:39:59.277Z,11.10
2023-04-22T04:42:29.838Z,9.70
2023-04-22T04:44:58.142Z,11.20
2023-04-22T04:47:27.762Z,12.20
2023-04-22T04:49:57.981Z,10.80
2023-04-22T04:52:26.442Z,14.30
2023-04-22T04:54:54.724Z,11.10
2023-04-22T04:57:23.022Z,13.60
2023-04-22T04:59:51.359Z,10.70
2023-04-22T05:02:19.930Z,11.80
2023-04-22T05:04:48.825Z,15.10
2023-04-22T05:07:17.211Z,15.10
2023-04-22T05:09:45.493Z,12.90
2023-04-22T05:12:14.634Z,18.60
2023-04-22T05:14:43.996Z,12.70
2023-04-22T05:17:12.330Z,21.10
2023-04-22T05:19:41.474Z,15.70
2023-04-22T05:22:10.794Z,18.40
2023-04-22T05:24:39.068Z,14.60
2023-04-22T05:27:07.689Z,12.00
2023-04-22T05:29:36.099Z,18.40
2023-04-22T05:32:04.711Z,17.60
2023-04-22T05:34:33.591Z,14.60
2023-04-22T05:37:03.174Z,13.60
2023-04-22T05:39:31.725Z,14.70
2023-04-22T05:42:00.206Z,14.30
2023-04-22T05:44:28.591Z,18.20
2023-04-22T05:46:56.974Z,19.60
2023-04-22T05:49:25.456Z,19.50
2023-04-22T05:51:53.805Z,17.00
2023-04-22T05:54:22.381Z,20.40
2023-04-22T05:56:51.062Z,16.90
2023-04-22T05:59:21.094Z,19.70
2023-04-22T06:01:50.520Z,15.20
2023-04-22T06:04:20.156Z,12.10
2023-04-22T06:06:49.280Z,15.70
2023-04-22T06:09:18.335Z,16.60
2023-04-22T06:11:49.578Z,17.30
2023-04-22T06:14:17.934Z,15.70
2023-04-22T06:16:46.342Z,19.00
2023-04-22T06:19:14.749Z,11.60
2023-04-22T06:21:43.538Z,19.50
2023-04-22T06:24:11.951Z,11.50
2023-04-22T06:26:40.878Z,14.60
2023-04-22T06:29:09.364Z,20.60
2023-04-22T06:31:37.653Z,16.60
2023-04-22T06:34:05.994Z,15.60
2023-04-22T06:36:36.801Z,18.60
2023-04-22T06:39:05.611Z,16.90
2023-04-22T06:41:34.057Z,15.40
2023-04-22T06:44:02.249Z,17.90
2023-04-22T06:46:30.872Z,15.70
2023-04-22T06:48:59.223Z,14.90
2023-04-22T06:51:27.565Z,13.90
2023-04-22T06:53:57.712Z,23.30
2023-04-22T06:56:26.247Z,21.10
2023-04-22T06:58:55.857Z,18.20
2023-04-22T07:01:24.462Z,18.10
2023-04-22T07:03:53.133Z,12.50
2023-04-22T07:06:21.484Z,17.30
2023-04-22T07:08:49.881Z,19.90
2023-04-22T07:11:18.647Z,17.70
2023-04-22T07:13:46.952Z,20.20
2023-04-22T07:16:15.580Z,19.90
2023-04-22T07:18:44.270Z,18.90
2023-04-22T07:21:12.523Z,23.20
2023-04-22T07:23:40.785Z,15.80
2023-04-22T07:26:09.362Z,20.40
2023-04-22T07:28:37.995Z,16.00
2023-04-22T07:31:06.520Z,16.60
2023-04-22T07:33:35.151Z,13.00
2023-04-22T07:36:04.002Z,17.20
2023-04-22T07:38:32.479Z,12.70
2023-04-22T07:41:00.992Z,13.40
2023-04-22T07:43:29.237Z,14.50
2023-04-22T07:45:57.716Z,13.30
2023-04-22T07:48:26.889Z,11.30
2023-04-22T07:50:55.451Z,11.00
2023-04-22T07:53:23.839Z,15.00
2023-04-22T07:55:52.280Z,12.70
2023-04-22T07:58:20.545Z,13.50
2023-04-22T08:00:48.891Z,19.90
2023-04-22T08:03:17.458Z,13.70
2023-04-22T08:05:46.031Z,9.30
2023-04-22T08:08:14.831Z,15.90
2023-04-22T08:10:43.255Z,11.70
2023-04-22T08:13:11.565Z,10.10
2023-04-22T08:15:39.883Z,9.50
2023-04-22T08:18:08.497Z,7.40
2023-04-22T08:20:36.878Z,8.60
2023-04-22T08:23:06.407Z,13.40
2023-04-22T08:25:35.351Z,11.50
2023-04-22T08:28:03.712Z,6.40
2023-04-22T08:30:32.071Z,10.50
2023-04-22T08:33:00.495Z,6.60
2023-04-22T08:35:28.927Z,6.30
2023-04-22T08:37:57.215Z,6.40
2023-04-22T08:40:26.196Z,5.60
2023-04-22T08:42:55.356Z,5.30
2023-04-22T08:45:24.676Z,6.70
2023-04-22T08:47:54.524Z,4.40
2023-04-22T08:50:22.887Z,13.70
2023-04-22T08:52:51.189Z,7.10
2023-04-22T08:55:20.045Z,7.50
2023-04-22T08:57:49.629Z,4.60
2023-04-22T09:00:19.332Z,6.40
2023-04-22T09:02:49.797Z,4.10
2023-04-22T09:05:19.108Z,4.70
2023-04-22T09:07:47.417Z,5.10
2023-04-22T09:10:16.086Z,4.30
2023-04-22T09:12:44.574Z,8.10
2023-04-22T09:15:13.392Z,5.00
2023-04-22T09:17:42.949Z,5.10
2023-04-22T09:20:12.430Z,5.30
2023-04-22T09:22:42.753Z,4.00
2023-04-22T09:25:17.529Z,9.70
2023-04-22T09:27:50.308Z,4.20
2023-04-22T09:30:19.928Z,3.50
2023-04-22T09:32:56.304Z,4.10
2023-04-22T09:35:28.645Z,5.90
2023-04-22T09:37:57.587Z,6.30
2023-04-22T09:40:26.456Z,3.00
2023-04-22T09:42:55.821Z,4.70
2023-04-22T09:45:32.458Z,7.60
2023-04-22T09:48:04.299Z,3.60
2023-04-22T09:50:32.600Z,4.10
2023-04-22T09:53:03.366Z,10.30
2023-04-22T09:55:34.291Z,6.60
2023-04-22T09:58:08.029Z,6.10
2023-04-22T10:00:39.774Z,4.50
2023-04-22T10:03:10.898Z,4.40
2023-04-22T10:05:40.915Z,4.90
2023-04-22T10:08:10.991Z,3.90
2023-04-22T10:10:40.154Z,9.20
2023-04-22T10:13:09.259Z,4.50
2023-04-22T10:15:40.408Z,4.80
2023-04-22T10:18:12.300Z,4.50
2023-04-22T10:20:41.326Z,3.00
2023-04-22T10:23:14.768Z,3.70
2023-04-22T10:25:43.229Z,4.60
2023-04-22T10:28:13.005Z,3.50
2023-04-22T10:30:41.716Z,5.20
2023-04-22T10:33:36.356Z,2.80
2023-04-22T10:36:09.404Z,7.70
2023-04-22T10:38:39.041Z,3.20
2023-04-22T10:41:07.668Z,3.60
2023-04-22T10:43:43.091Z,4.40
2023-04-22T10:46:41.961Z,2.70
2023-04-22T10:49:11.546Z,3.10
2023-04-22T10:51:40.285Z,2.40
2023-04-22T10:54:09.132Z,2.50
2023-04-22T10:57:02.309Z,5.40
2023-04-22T10:59:31.085Z,3.50
2023-04-22T11:02:02.003Z,4.00
2023-04-22T11:04:31.153Z,2.80
2023-04-22T11:07:14.352Z,6.20
2023-04-22T11:09:45.207Z,4.50
2023-04-22T11:12:44.513Z,6.50
2023-04-22T11:15:15.301Z,2.30
2023-04-22T11:17:45.416Z,3.90
2023-04-22T11:20:16.749Z,4.10
2023-04-22T11:22:46.221Z,3.20
2023-04-22T11:25:14.883Z,2.90
2023-04-22T11:27:43.626Z,2.10
2023-04-22T11:30:15.715Z,2.90
2023-04-22T11:32:48.852Z,2.80
2023-04-22T11:37:47.446Z,2.50
2023-04-22T11:40:29.905Z,2.60
2023-04-22T11:45:28.232Z,1.50
2023-04-22T11:47:56.892Z,1.70
2023-04-22T11:50:28.743Z,3.00
2023-04-22T11:53:00.455Z,2.10
2023-04-22T11:55:30.499Z,5.10
2023-04-22T11:58:00.539Z,1.90
2023-04-22T12:00:33.902Z,1.30
2023-04-22T12:03:04.430Z,2.50
2023-04-22T12:05:38.248Z,2.30
2023-04-22T12:08:11.371Z,1.80
2023-04-22T12:10:44.617Z,1.70
2023-04-22T12:18:16.208Z,3.20
2023-04-22T12:20:44.759Z,4.70
2023-04-22T12:23:14.308Z,3.20
2023-04-22T12:25:43.409Z,3.10
2023-04-22T12:28:12.921Z,2.60
2023-04-22T12:30:41.270Z,3.60
2023-04-22T12:33:10.340Z,3.50
2023-04-22T12:35:38.997Z,1.60
2023-04-22T12:38:07.658Z,4.00
2023-04-22T12:40:36.509Z,5.10
2023-04-22T12:43:05.360Z,2.80
2023-04-22T12:45:33.926Z,4.40
2023-04-22T12:48:02.269Z,4.10
2023-04-22T12:50:30.585Z,5.10
2023-04-22T12:52:59.158Z,4.30
2023-04-22T12:55:27.773Z,2.50
2023-04-22T12:57:56.733Z,2.30
2023-04-22T13:00:25.890Z,2.70
2023-04-22T13:02:54.311Z,3.60
2023-04-22T13:05:22.761Z,2.30
2023-04-22T13:08:05.868Z,3.40
2023-04-22T13:10:36.394Z,2.60
2023-04-22T13:13:17.947Z,7.10
2023-04-22T13:15:52.473Z,2.10
2023-04-22T13:18:22.028Z,12.80
2023-04-22T13:20:51.104Z,9.10
2023-04-22T13:23:20.942Z,3.00
2023-04-22T13:25:49.905Z,2.50
2023-04-22T13:28:18.576Z,3.10
2023-04-22T13:30:47.103Z,2.70
2023-04-22T13:33:15.545Z,5.40
2023-04-22T13:35:43.824Z,2.90
2023-04-22T13:38:12.088Z,3.00
2023-04-22T13:40:40.786Z,5.20
2023-04-22T13:43:09.910Z,5.00
2023-04-22T13:45:38.241Z,8.40
2023-04-22T13:48:06.946Z,2.60
2023-04-22T13:50:35.388Z,5.00
2023-04-22T13:53:04.302Z,6.10
2023-04-22T13:55:33.159Z,2.90
2023-04-22T13:58:01.585Z,4.90
2023-04-22T14:00:30.078Z,5.60
2023-04-22T14:02:58.744Z,4.50
2023-04-22T14:05:27.208Z,4.40
2023-04-22T14:07:56.956Z,4.40
2023-04-22T14:10:27.901Z,2.30
2023-04-22T14:12:57.187Z,5.00
2023-04-22T14:15:26.237Z,3.40
2023-04-22T14:17:54.645Z,3.10
2023-04-22T14:20:24.874Z,5.80
2023-04-22T14:22:53.503Z,3.20
2023-04-22T14:25:22.414Z,4.90
2023-04-22T14:27:50.865Z,5.70
2023-04-22T14:30:21.411Z,4.00
2023-04-22T14:32:50.275Z,3.80
2023-04-22T14:35:19.316Z,3.60
2023-04-22T14:37:47.737Z,4.30
2023-04-22T14:40:16.910Z,3.60
2023-04-22T14:42:46.421Z,8.70
2023-04-22T14:45:15.062Z,5.70
2023-04-22T14:47:43.392Z,7.10
2023-04-22T14:50:12.298Z,6.90
2023-04-22T14:52:41.453Z,3.80
2023-04-22T14:55:19.887Z,6.80
2023-04-22T14:57:52.667Z,9.50
2023-04-22T15:00:21.318Z,4.90
2023-04-22T15:02:50.146Z,6.70
2023-04-22T15:05:18.807Z,6.80
2023-04-22T15:07:47.473Z,4.70
2023-04-22T15:10:16.508Z,4.90
2023-04-22T15:12:45.239Z,4.50
2023-04-22T15:15:15.412Z,7.10
2023-04-22T15:17:44.258Z,6.10
2023-04-22T15:20:14.510Z,9.20
2023-04-22T15:22:43.151Z,3.60
2023-04-22T15:25:12.096Z,3.20
2023-04-22T15:27:40.521Z,4.00
2023-04-22T15:30:10.451Z,8.40
2023-04-22T15:32:39.213Z,3.70
2023-04-22T15:35:08.852Z,4.50
2023-04-22T15:37:37.128Z,5.40
2023-04-22T15:40:09.381Z,6.10
2023-04-22T15:42:37.989Z,5.10
2023-04-22T15:45:08.602Z,3.30
2023-04-22T15:47:36.975Z,4.60
2023-04-22T15:50:08.260Z,4.50
2023-04-22T15:52:38.257Z,11.30
2023-04-22T15:55:07.934Z,4.10
2023-04-22T15:57:36.579Z,3.10
2023-04-22T16:00:12.767Z,3.20
2023-04-22T16:02:44.074Z,4.20
2023-04-22T16:05:14.041Z,3.80
2023-04-22T16:07:42.465Z,3.70
2023-04-22T16:10:11.820Z,6.70
2023-04-22T16:12:41.304Z,7.10
2023-04-22T16:15:11.137Z,5.60
2023-04-22T16:17:43.212Z,2.40
2023-04-22T16:20:12.358Z,4.30
2023-04-22T16:22:40.839Z,4.80
2023-04-22T16:25:10.414Z,6.80
2023-04-22T16:27:38.957Z,4.00
2023-04-22T16:30:09.221Z,4.30
2023-04-22T16:32:37.559Z,3.00
2023-04-22T16:35:08.728Z,4.30
2023-04-22T16:37:37.071Z,3.50
2023-04-22T16:40:07.328Z,7.50
2023-04-22T16:42:35.839Z,3.20
2023-04-22T16:45:05.992Z,5.40
2023-04-22T16:47:34.683Z,5.10
2023-04-22T16:50:03.298Z,3.30
2023-04-22T16:52:31.892Z,3.20
2023-04-22T16:55:00.451Z,3.20
2023-04-22T16:57:28.794Z,8.70
2023-04-22T16:59:57.224Z,7.20
2023-04-22T17:02:25.903Z,9.40
2023-04-22T17:04:54.352Z,6.80
2023-04-22T17:07:22.703Z,8.80
2023-04-22T17:09:51.259Z,5.60
2023-04-22T17:12:19.608Z,4.10
2023-04-22T17:14:47.858Z,9.60
2023-04-22T17:17:16.215Z,11.50
2023-04-22T17:19:44.885Z,5.90
2023-04-22T17:22:13.142Z,15.70
2023-04-22T17:24:41.530Z,10.70
2023-04-22T17:27:10.028Z,7.90
2023-04-22T17:29:38.521Z,8.10
2023-04-22T17:32:07.285Z,8.30
2023-04-22T17:34:35.820Z,11.00
2023-04-22T17:37:04.375Z,12.00
2023-04-22T17:39:32.858Z,15.20
2023-04-22T17:42:01.892Z,6.20
2023-04-22T17:44:31.151Z,21.80
2023-04-22T17:46:59.499Z,14.70
2023-04-22T17:49:27.967Z,13.10
2023-04-22T17:51:56.392Z,7.50
2023-04-22T17:54:25.318Z,10.20
2023-04-22T17:56:53.608Z,10.70
2023-04-22T17:59:22.526Z,16.90
2023-04-22T18:01:50.973Z,13.70
2023-04-22T18:04:19.354Z,10.80
2023-04-22T18:06:47.688Z,17.10
2023-04-22T18:09:16.694Z,18.90
2023-04-22T18:11:45.221Z,13.80
2023-04-22T18:14:13.687Z,13.10
2023-04-22T18:16:42.097Z,12.60
2023-04-22T18:19:10.852Z,11.40
2023-04-22T18:21:43.986Z,14.40
2023-04-22T18:24:18.668Z,10.70
2023-04-22T18:26:48.244Z,12.70
2023-04-22T18:29:16.521Z,13.60
2023-04-22T18:31:45.947Z,13.20
2023-04-22T18:34:15.231Z,14.30
2023-04-22T18:36:43.508Z,8.30
2023-04-22T18:39:12.081Z,9.00
2023-04-22T18:41:42.207Z,18.50
2023-04-22T18:44:10.749Z,13.70
2023-04-22T18:46:39.007Z,17.90
2023-04-22T18:49:07.250Z,15.00
2023-04-22T18:51:35.695Z,10.70
2023-04-22T18:54:04.970Z,14.70
2023-04-22T18:56:33.781Z,11.30
2023-04-22T18:59:02.218Z,10.60
2023-04-22T19:01:30.736Z,10.50
2023-04-22T19:04:01.134Z,10.10
2023-04-22T19:06:29.781Z,9.90
2023-04-22T19:08:58.349Z,10.30
2023-04-22T19:11:26.606Z,16.10
2023-04-22T19:13:55.033Z,16.30
2023-04-22T19:16:26.244Z,12.00
2023-04-22T19:18:55.212Z,17.50
2023-04-22T19:21:23.507Z,20.80
2023-04-22T19:23:52.406Z,11.20
2023-04-22T19:26:21.379Z,17.50
2023-04-22T19:28:49.605Z,16.90
2023-04-22T19:31:18.386Z,19.90
2023-04-22T19:33:48.907Z,13.10
2023-04-22T19:36:17.698Z,16.20
2023-04-22T19:38:46.048Z,11.60
2023-04-22T19:41:14.347Z,14.40
2023-04-22T19:43:42.990Z,22.50
2023-04-22T19:46:11.889Z,15.90
2023-04-22T19:48:41.341Z,18.60
2023-04-22T19:51:10.845Z,23.30
2023-04-22T19:53:40.678Z,22.70
2023-04-22T19:56:09.964Z,33.20
2023-04-22T19:58:39.138Z,18.20
2023-04-22T20:01:08.499Z,17.70
2023-04-22T20:03:37.956Z,16.10
2023-04-22T20:06:07.330Z,19.90
2023-04-22T20:08:35.755Z,24.40
2023-04-22T20:11:04.702Z,24.00
2023-04-22T20:13:33.433Z,24.40
2023-04-22T20:16:03.209Z,14.60
2023-04-22T20:18:32.502Z,18.30
2023-04-22T20:21:00.973Z,22.90
2023-04-22T20:23:29.401Z,28.50
2023-04-22T20:25:58.403Z,24.50
2023-04-22T20:28:43.924Z,20.80
2023-04-22T20:31:12.956Z,25.80
2023-04-22T20:33:42.190Z,24.10
2023-04-22T20:36:11.151Z,28.40
2023-04-22T20:38:39.936Z,31.40
2023-04-22T20:41:09.497Z,27.40
2023-04-22T20:43:38.086Z,35.80
2023-04-22T20:46:06.915Z,30.50
2023-04-22T20:48:35.192Z,27.60
2023-04-22T20:51:04.130Z,32.90
2023-04-22T20:53:32.407Z,39.00
2023-04-22T20:56:00.740Z,35.20
2023-04-22T20:58:29.048Z,30.10
2023-04-22T21:00:57.510Z,33.00
2023-04-22T21:03:28.126Z,37.10
2023-04-22T21:05:58.082Z,36.50
2023-04-22T21:08:26.936Z,38.90
2023-04-22T21:10:56.305Z,33.70
2023-04-22T21:13:25.681Z,32.30
2023-04-22T21:15:58.250Z,38.00
2023-04-22T21:18:28.435Z,34.00
2023-04-22T21:20:57.482Z,38.40
2023-04-22T21:23:26.414Z,41.40
2023-04-22T21:25:55.964Z,40.90
2023-04-22T21:28:25.177Z,36.60
2023-04-22T21:30:54.898Z,41.90
2023-04-22T21:33:24.522Z,43.40
2023-04-22T21:35:52.982Z,42.50
2023-04-22T21:38:21.426Z,42.00
2023-04-22T21:40:49.833Z,41.80
2023-04-22T21:43:18.157Z,36.10
2023-04-22T21:45:46.387Z,48.20
2023-04-22T21:48:15.113Z,36.60
2023-04-22T21:50:43.643Z,48.70
2023-04-22T21:53:12.099Z,44.50
2023-04-22T21:55:40.311Z,43.60
2023-04-22T21:58:08.792Z,42.20
2023-04-22T22:00:38.226Z,42.20
2023-04-22T22:03:06.643Z,43.20
2023-04-22T22:05:36.534Z,43.70
2023-04-22T22:08:05.102Z,42.10
2023-04-22T22:10:33.875Z,38.10
2023-04-22T22:13:02.221Z,43.80
2023-04-22T22:15:30.774Z,38.00
2023-04-22T22:18:00.721Z,51.30
2023-04-22T22:20:29.551Z,41.70
2023-04-22T22:22:57.782Z,46.00
2023-04-22T22:25:26.418Z,41.00
2023-04-22T22:27:54.889Z,46.30
2023-04-22T22:30:23.350Z,45.30
2023-04-22T22:32:51.672Z,46.70
2023-04-22T22:35:20.607Z,46.00
2023-04-22T22:37:49.018Z,45.20
2023-04-22T22:40:17.493Z,42.10
2023-04-22T22:42:46.020Z,39.20
2023-04-22T22:45:14.306Z,38.10
2023-04-22T22:47:43.473Z,42.40
2023-04-22T22:50:12.085Z,39.70
2023-04-22T22:52:40.490Z,38.80
2023-04-22T22:55:09.730Z,44.80
2023-04-22T22:57:38.129Z,42.60
2023-04-22T23:00:10.441Z,42.20
2023-04-22T23:02:38.911Z,46.70
2023-04-22T23:05:10.852Z,36.40
2023-04-22T23:07:39.386Z,38.50
2023-04-22T23:10:10.012Z,37.00
2023-04-22T23:12:38.351Z,35.90
2023-04-22T23:15:08.508Z,38.30
2023-04-22T23:17:36.957Z,36.60
2023-04-22T23:20:09.230Z,36.50
2023-04-22T23:22:39.115Z,40.70
2023-04-22T23:25:10.406Z,43.20
2023-04-22T23:27:40.042Z,45.80
2023-04-22T23:30:10.518Z,39.90
2023-04-22T23:32:40.558Z,42.80
2023-04-22T23:35:12.084Z,35.00
2023-04-22T23:37:44.293Z,43.60
2023-04-22T23:40:13.512Z,37.70
2023-04-22T23:42:41.786Z,45.70
2023-04-22T23:45:12.083Z,40.30
2023-04-22T23:47:40.712Z,40.60
2023-04-22T23:50:11.529Z,45.40
2023-04-22T23:52:40.850Z,41.30
2023-04-22T23:55:13.302Z,40.50
2023-04-22T23:57:42.778Z,44.80
